Terminal Aerodrome Forecast
Issued by NWS Central Illinois

Home | Current Version | Previous Version | Text Only | Print | Product List | Glossary On
Versions: 1 2 3 4 5 6 7 8 9 10 11 12 13 14 15 16 17 18 19 20 21
000
FTUS43 KILX 162300
TAFSPI
TAF
KSPI 162333Z 1700/1724 16020G27KT P6SM BKN250
     FM170100 16012KT P6SM BKN250
     FM171600 23010KT P6SM SCT040 OVC150
     FM172100 26008KT P6SM OVC060=

USA.gov is the U.S. government's official web portal to all federal, state and local government web resources and services.